createdAt,value
2022-12-18T00:02:45.583Z,93.95
2022-12-18T00:07:47.060Z,99.03
2022-12-18T00:12:48.434Z,84.13
2022-12-18T00:17:49.866Z,95.75
2022-12-18T00:22:51.447Z,100.45
2022-12-18T00:27:52.882Z,98.90
2022-12-18T00:32:54.274Z,91.88
2022-12-18T00:37:55.711Z,95.10
2022-12-18T00:42:57.281Z,87.25
2022-12-18T00:47:58.745Z,96.22
2022-12-18T00:53:00.147Z,96.93
2022-12-18T00:58:01.527Z,87.18
2022-12-18T01:03:04.450Z,86.63
2022-12-18T01:08:05.902Z,90.43
2022-12-18T01:13:07.331Z,89.00
2022-12-18T01:18:08.735Z,96.78
2022-12-18T01:23:10.360Z,97.32
2022-12-18T01:28:12.168Z,89.30
2022-12-18T01:33:13.797Z,90.47
2022-12-18T01:38:15.171Z,91.60
2022-12-18T01:43:16.562Z,89.68
2022-12-18T01:48:17.966Z,86.32
2022-12-18T01:53:21.860Z,81.43
2022-12-18T01:58:25.199Z,82.35
2022-12-18T02:03:26.645Z,82.15
2022-12-18T02:08:46.782Z,80.20
2022-12-18T02:18:52.806Z,85.55
2022-12-18T02:24:02.990Z,82.15
2022-12-18T02:29:25.198Z,84.15
2022-12-18T02:34:31.425Z,83.50
2022-12-18T02:39:34.009Z,79.28
2022-12-18T02:44:36.447Z,91.85
2022-12-18T02:49:58.030Z,91.05
2022-12-18T02:55:11.462Z,84.57
2022-12-18T03:00:16.376Z,78.03
2022-12-18T03:05:21.763Z,82.28
2022-12-18T03:10:26.152Z,78.72
2022-12-18T03:15:32.926Z,74.07
2022-12-18T03:20:36.312Z,72.72
2022-12-18T03:25:40.565Z,80.38
2022-12-18T03:30:42.816Z,79.03
2022-12-18T03:35:44.568Z,76.88
2022-12-18T03:40:46.038Z,71.07
2022-12-18T03:45:52.295Z,75.88
2022-12-18T03:50:53.989Z,75.20
2022-12-18T03:55:56.378Z,76.97
2022-12-18T04:01:02.528Z,81.03
2022-12-18T04:06:04.504Z,75.97
2022-12-18T04:11:06.959Z,83.50
2022-12-18T04:16:08.631Z,79.90
2022-12-18T04:21:10.952Z,86.78
2022-12-18T04:26:12.721Z,84.97
2022-12-18T04:31:14.291Z,81.32
2022-12-18T04:36:15.724Z,90.18
2022-12-18T04:41:17.422Z,75.78
2022-12-18T04:46:18.938Z,79.05
2022-12-18T04:51:26.192Z,80.45
2022-12-18T04:56:28.419Z,81.38
2022-12-18T05:01:34.741Z,79.70
2022-12-18T05:06:36.594Z,74.97
2022-12-18T05:11:38.062Z,77.45
2022-12-18T05:16:39.673Z,83.72
2022-12-18T05:21:41.098Z,82.20
2022-12-18T05:26:42.592Z,81.47
2022-12-18T05:31:44.228Z,68.60
2022-12-18T05:36:46.190Z,68.70
2022-12-18T05:41:47.648Z,74.38
2022-12-18T05:46:49.231Z,70.22
2022-12-18T05:51:50.924Z,67.57
2022-12-18T05:56:52.373Z,67.68
2022-12-18T06:01:54.010Z,65.50
2022-12-18T06:06:55.521Z,62.00
2022-12-18T06:11:56.956Z,62.70
2022-12-18T06:16:58.663Z,69.22
2022-12-18T06:22:00.133Z,60.95
2022-12-18T06:27:01.578Z,57.33
2022-12-18T06:32:03.381Z,56.22
2022-12-18T06:37:04.833Z,58.30
2022-12-18T06:42:06.190Z,55.25
2022-12-18T06:47:07.611Z,52.80
2022-12-18T06:52:09.026Z,54.03
2022-12-18T06:57:10.484Z,53.35
2022-12-18T07:02:12.994Z,52.13
2022-12-18T07:07:14.510Z,49.05
2022-12-18T07:12:15.933Z,42.28
2022-12-18T07:17:17.550Z,48.80
2022-12-18T07:22:18.937Z,48.92
2022-12-18T07:27:20.343Z,43.88
2022-12-18T07:32:21.711Z,47.47
2022-12-18T07:37:23.142Z,40.75
2022-12-18T07:42:33.379Z,41.90
2022-12-18T07:47:35.921Z,41.28
2022-12-18T07:52:37.325Z,42.15
2022-12-18T07:57:50.708Z,39.72
2022-12-18T08:02:55.043Z,39.25
2022-12-18T08:07:57.089Z,37.75
2022-12-18T08:13:03.156Z,36.80
2022-12-18T08:18:10.097Z,36.75
2022-12-18T08:23:14.406Z,38.72
2022-12-18T08:28:17.140Z,44.13
2022-12-18T08:33:18.583Z,35.30
2022-12-18T08:38:20.036Z,40.28
2022-12-18T08:43:40.559Z,39.45
2022-12-18T08:48:44.744Z,38.42
2022-12-18T08:53:46.523Z,38.45
2022-12-18T08:58:47.943Z,38.55
2022-12-18T09:03:49.823Z,43.90
2022-12-18T09:08:53.578Z,35.28
2022-12-18T09:13:55.376Z,36.05
2022-12-18T09:19:00.604Z,41.97
2022-12-18T09:24:02.219Z,38.35
2022-12-18T09:29:03.897Z,35.92
2022-12-18T09:34:05.287Z,37.53
2022-12-18T09:39:08.759Z,39.03
2022-12-18T09:44:19.676Z,40.83
2022-12-18T09:49:22.811Z,35.88
2022-12-18T09:54:27.705Z,40.95
2022-12-18T09:59:36.845Z,38.92
2022-12-18T10:04:38.540Z,35.80
2022-12-18T10:09:39.988Z,37.10
2022-12-18T10:14:44.114Z,40.30
2022-12-18T10:19:52.333Z,34.83
2022-12-18T10:24:56.534Z,32.72
2022-12-18T10:29:59.161Z,38.58
2022-12-18T10:35:01.278Z,36.55
2022-12-18T10:40:08.234Z,34.33
2022-12-18T10:45:14.910Z,29.63
2022-12-18T10:50:47.194Z,36.25
2022-12-18T10:55:54.327Z,32.33
2022-12-18T11:01:15.664Z,33.47
2022-12-18T11:06:18.862Z,30.90
2022-12-18T11:11:22.087Z,30.30
2022-12-18T11:16:26.396Z,33.25
2022-12-18T11:21:27.887Z,31.42
2022-12-18T11:26:38.194Z,30.70
2022-12-18T11:31:39.691Z,32.75
2022-12-18T11:36:46.113Z,31.33
2022-12-18T11:42:12.816Z,33.22
2022-12-18T11:47:20.214Z,34.70
2022-12-18T11:52:25.351Z,32.80
2022-12-18T11:57:27.470Z,32.55
2022-12-18T12:02:43.882Z,31.30
2022-12-18T12:07:53.761Z,29.38
2022-12-18T12:12:55.222Z,33.38
2022-12-18T12:18:22.884Z,28.65
2022-12-18T12:23:39.543Z,35.25
2022-12-18T12:28:46.910Z,30.45
2022-12-18T12:33:54.009Z,32.60
2022-12-18T12:38:58.711Z,36.35
2022-12-18T12:44:02.731Z,32.38
2022-12-18T12:49:10.788Z,31.63
2022-12-18T12:54:17.296Z,29.42
2022-12-18T12:59:22.088Z,27.73
2022-12-18T13:04:33.077Z,30.33
2022-12-18T13:09:36.884Z,29.92
2022-12-18T13:14:41.624Z,30.33
2022-12-18T13:19:43.719Z,33.35
2022-12-18T13:24:45.120Z,34.47
2022-12-18T13:29:47.498Z,31.98
2022-12-18T13:34:49.495Z,30.75
2022-12-18T13:39:50.863Z,30.83
2022-12-18T13:44:52.533Z,34.95
2022-12-18T13:49:54.004Z,31.08
2022-12-18T13:54:59.319Z,29.30
2022-12-18T14:00:18.249Z,30.38
2022-12-18T14:05:25.685Z,33.08
2022-12-18T14:10:44.388Z,31.42
2022-12-18T14:15:48.927Z,34.83
2022-12-18T14:20:53.091Z,28.13
2022-12-18T14:25:54.945Z,31.77
2022-12-18T14:30:57.272Z,34.03
2022-12-18T14:36:05.821Z,31.38
2022-12-18T14:41:10.986Z,33.67
2022-12-18T14:46:33.942Z,29.20
2022-12-18T14:51:36.891Z,28.67
2022-12-18T14:56:45.469Z,34.10
2022-12-18T15:01:48.478Z,37.13
2022-12-18T15:06:49.929Z,30.67
2022-12-18T15:11:55.941Z,27.60
2022-12-18T15:16:57.675Z,29.00
2022-12-18T15:22:04.459Z,29.88
2022-12-18T15:27:30.288Z,30.45
2022-12-18T15:32:31.715Z,30.05
2022-12-18T15:37:35.511Z,28.15
2022-12-18T15:42:58.894Z,28.67
2022-12-18T15:48:00.517Z,33.38
2022-12-18T15:53:01.904Z,29.23
2022-12-18T15:58:04.736Z,29.48
2022-12-18T16:03:06.595Z,29.70
2022-12-18T16:08:08.119Z,34.55
2022-12-18T16:13:13.471Z,29.73
2022-12-18T16:18:15.107Z,31.63
2022-12-18T16:23:16.530Z,31.00
2022-12-18T16:28:17.957Z,33.33
2022-12-18T16:33:19.335Z,33.55
2022-12-18T16:38:21.291Z,30.45
2022-12-18T16:43:25.341Z,30.90
2022-12-18T16:48:28.945Z,29.00
2022-12-18T16:53:33.183Z,31.00
2022-12-18T16:58:35.115Z,29.48
2022-12-18T17:03:36.640Z,33.28
2022-12-18T17:08:38.070Z,32.00
2022-12-18T17:13:39.855Z,30.40
2022-12-18T17:18:41.673Z,30.52
2022-12-18T17:23:46.226Z,33.20
2022-12-18T17:28:48.152Z,36.80
2022-12-18T17:33:50.909Z,39.25
2022-12-18T17:38:53.013Z,32.53
2022-12-18T17:43:55.291Z,33.55
2022-12-18T17:48:57.301Z,35.90
2022-12-18T17:53:58.713Z,37.70
2022-12-18T17:59:00.223Z,35.28
2022-12-18T18:04:02.169Z,38.75
2022-12-18T18:09:03.655Z,38.17
2022-12-18T18:14:06.991Z,41.17
2022-12-18T18:19:13.142Z,41.40
2022-12-18T18:24:16.014Z,33.45
2022-12-18T18:29:19.180Z,35.35
2022-12-18T18:34:22.026Z,41.97
2022-12-18T18:39:23.854Z,40.47
2022-12-18T18:44:26.075Z,39.47
2022-12-18T18:49:28.583Z,45.63
2022-12-18T18:54:31.091Z,37.80
2022-12-18T18:59:32.478Z,38.85
2022-12-18T19:04:34.256Z,44.13
2022-12-18T19:09:38.402Z,40.33
2022-12-18T19:14:39.804Z,40.28
2022-12-18T19:19:43.496Z,43.60
2022-12-18T19:24:45.111Z,45.92
2022-12-18T19:29:46.698Z,45.25
2022-12-18T19:34:48.164Z,40.13
2022-12-18T19:39:50.790Z,44.40
2022-12-18T19:44:52.296Z,45.42
2022-12-18T19:49:53.804Z,42.53
2022-12-18T19:54:55.246Z,41.53
2022-12-18T19:59:56.725Z,45.65
2022-12-18T20:04:58.109Z,40.20
2022-12-18T20:10:05.466Z,47.22
2022-12-18T20:15:10.892Z,42.38
2022-12-18T20:20:12.476Z,44.80
2022-12-18T20:25:14.838Z,43.50
2022-12-18T20:30:16.816Z,44.38
2022-12-18T20:35:18.301Z,42.72
2022-12-18T20:40:20.521Z,43.13
2022-12-18T20:45:21.964Z,41.97
2022-12-18T20:50:23.476Z,42.88
2022-12-18T20:55:24.858Z,44.28
2022-12-18T21:00:26.241Z,47.17
2022-12-18T21:05:27.619Z,45.20
2022-12-18T21:10:29.035Z,45.20
2022-12-18T21:15:30.481Z,42.78
2022-12-18T21:20:31.935Z,41.67
2022-12-18T21:25:33.577Z,39.55
2022-12-18T21:30:35.077Z,43.60
2022-12-18T21:35:36.636Z,45.67
2022-12-18T21:40:39.067Z,48.30
2022-12-18T21:45:40.535Z,46.20
2022-12-18T21:50:42.003Z,48.75
2022-12-18T21:55:43.403Z,49.53
2022-12-18T22:00:48.634Z,48.50
2022-12-18T22:05:56.203Z,43.92
2022-12-18T22:11:12.153Z,46.13
2022-12-18T22:16:13.710Z,43.72
2022-12-18T22:21:29.374Z,50.83
2022-12-18T22:26:37.916Z,46.55
2022-12-18T22:31:41.517Z,49.70
2022-12-18T22:36:44.670Z,51.88
2022-12-18T22:41:46.418Z,45.25
2022-12-18T22:47:02.898Z,47.53
2022-12-18T22:52:09.600Z,49.67
2022-12-18T22:57:11.084Z,47.75
2022-12-18T23:02:12.594Z,46.65
2022-12-18T23:07:14.166Z,52.50
2022-12-18T23:12:16.568Z,53.28
2022-12-18T23:17:18.111Z,53.22
2022-12-18T23:22:19.489Z,45.33
2022-12-18T23:27:20.915Z,47.25
2022-12-18T23:32:22.326Z,54.20
2022-12-18T23:37:57.082Z,52.80
2022-12-18T23:42:45.051Z,55.55
2022-12-18T23:47:47.093Z,53.47
2022-12-18T23:52:52.408Z,56.78
2022-12-18T23:57:53.813Z,54.03
